Time;durP1;ratioP1;P1;durP2;ratioP2;P2;SDS_P1;SDS_P2;PMS_P1;PMS_P2;Temp;Humidity;BMP_temperature;BMP_pressure;BME280_temperature;BME280_humidity;BME280_pressure;Samples;Min_cycle;Max_cycle;Signal;HPM_P1;HPM_P2
2022/11/26 00:00:44;;;;;;;0.40;0.30;;;;;;;3.78;100.00;101281.75;5038793;28;20498;-54
2022/11/26 00:03:12;;;;;;;0.37;0.27;;;;;;;3.77;100.00;101282.63;5042070;28;20556;-54
2022/11/26 00:05:41;;;;;;;2.73;0.33;;;;;;;3.70;100.00;101276.41;5031689;28;20458;-54
2022/11/26 00:08:35;;;;;;;0.30;0.17;;;;;;;3.68;100.00;101288.63;5037160;28;20454;-54
2022/11/26 00:11:02;;;;;;;0.30;0.20;;;;;;;3.73;100.00;101284.34;5040680;28;20470;-55
2022/11/26 00:13:30;;;;;;;0.30;0.20;;;;;;;3.72;100.00;101289.56;5033178;28;20479;-55
2022/11/26 00:15:56;;;;;;;0.40;0.30;;;;;;;3.65;100.00;101293.84;5040991;28;20455;-55
2022/11/26 00:18:25;;;;;;;0.50;0.50;;;;;;;3.56;100.00;101305.09;5036154;28;20455;-55
2022/11/26 00:20:59;;;;;;;0.40;0.37;;;;;;;3.59;100.00;101304.25;5038116;28;20491;-55
2022/11/26 00:23:27;;;;;;;0.40;0.30;;;;;;;3.70;100.00;101301.78;5043270;28;20498;-55
2022/11/26 00:26:00;;;;;;;0.30;0.20;;;;;;;3.70;100.00;101318.47;5031758;28;20452;-55
2022/11/26 00:28:29;;;;;;;0.60;0.60;;;;;;;3.52;100.00;101319.03;5017111;28;20448;-55
2022/11/26 00:30:58;;;;;;;0.40;0.20;;;;;;;3.56;100.00;101327.84;5039467;28;20866;-55
2022/11/26 00:33:26;;;;;;;0.50;0.50;;;;;;;3.52;100.00;101328.66;5037311;28;20544;-55
2022/11/26 00:35:56;;;;;;;5.60;0.33;;;;;;;3.38;100.00;101328.44;5042985;28;20454;-54
2022/11/26 00:38:24;;;;;;;0.40;0.30;;;;;;;3.48;100.00;101324.22;5038612;28;20450;-55
2022/11/26 00:40:50;;;;;;;0.30;0.27;;;;;;;3.39;100.00;101329.31;5036147;28;20494;-55
2022/11/26 00:43:17;;;;;;;0.30;0.20;;;;;;;3.34;100.00;101326.63;5040416;28;20487;-55
2022/11/26 00:45:44;;;;;;;0.70;0.70;;;;;;;3.35;100.00;101332.75;5039939;28;20458;-54
2022/11/26 00:48:10;;;;;;;0.30;0.30;;;;;;;3.40;100.00;101338.97;5038407;28;20454;-55
2022/11/26 00:50:40;;;;;;;0.40;0.30;;;;;;;3.34;100.00;101346.75;5035970;28;20859;-54
2022/11/26 00:53:12;;;;;;;0.40;0.30;;;;;;;3.24;100.00;101346.56;5038914;28;20529;-55
2022/11/26 00:55:42;;;;;;;0.30;0.20;;;;;;;3.21;100.00;101349.16;5038748;28;20537;-54
2022/11/26 00:58:20;;;;;;;1.37;1.10;;;;;;;3.20;100.00;101354.38;5042730;28;20451;-55
2022/11/26 01:00:47;;;;;;;0.30;0.20;;;;;;;3.15;100.00;101362.19;5038659;28;20499;-54
2022/11/26 01:03:13;;;;;;;0.30;0.30;;;;;;;3.09;100.00;101361.16;5037857;28;20481;-55
2022/11/26 01:05:40;;;;;;;0.30;0.20;;;;;;;3.20;100.00;101365.78;5038888;28;20456;-55
2022/11/26 01:08:20;;;;;;;0.30;0.30;;;;;;;3.22;100.00;101366.69;5042278;28;20460;-55
2022/11/26 01:10:46;;;;;;;0.30;0.20;;;;;;;3.20;100.00;101367.53;5036527;28;20451;-55
2022/11/26 01:13:13;;;;;;;3.83;1.07;;;;;;;3.25;100.00;101374.63;5048099;28;20850;-54
2022/11/26 01:15:40;;;;;;;0.30;0.20;;;;;;;3.10;100.00;101381.31;5037701;28;20459;-55
2022/11/26 01:18:13;;;;;;;0.30;0.20;;;;;;;3.08;100.00;101386.56;5029689;28;20456;-55
2022/11/26 01:20:40;;;;;;;4.07;0.70;;;;;;;3.06;100.00;101392.63;5041471;28;20498;-55
2022/11/26 01:23:09;;;;;;;0.40;0.37;;;;;;;3.10;100.00;101387.47;5036365;28;20471;-55
2022/11/26 01:25:35;;;;;;;0.30;0.20;;;;;;;3.07;100.00;101391.78;5035367;28;20983;-55
2022/11/26 01:28:02;;;;;;;0.60;0.50;;;;;;;3.03;100.00;101396.09;5041807;28;20522;-55
2022/11/26 01:30:31;;;;;;;0.30;0.20;;;;;;;3.07;100.00;101394.41;5041484;28;20447;-54
2022/11/26 01:32:59;;;;;;;0.30;0.20;;;;;;;3.09;100.00;101411.06;5037414;28;20831;-55
2022/11/26 01:35:27;;;;;;;0.30;0.20;;;;;;;3.14;100.00;101405.03;5035579;28;20459;-55
2022/11/26 01:37:54;;;;;;;0.40;0.20;;;;;;;3.05;100.00;101418.00;5039748;28;20463;-54
2022/11/26 01:40:24;;;;;;;0.40;0.30;;;;;;;3.13;100.00;101421.66;5019647;28;20492;-55
2022/11/26 01:43:11;;;;;;;0.83;0.57;;;;;;;3.10;100.00;101428.59;5042004;28;20498;-55
2022/11/26 01:45:37;;;;;;;0.30;0.20;;;;;;;3.11;100.00;101423.38;5046395;28;20479;-54
2022/11/26 01:48:32;;;;;;;3.80;1.17;;;;;;;2.98;100.00;101426.59;5042237;28;20455;-55
2022/11/26 01:51:05;;;;;;;0.30;0.20;;;;;;;2.98;100.00;101430.13;5032569;28;20446;-55
2022/11/26 01:53:44;;;;;;;0.30;0.30;;;;;;;2.96;100.00;101430.94;5039145;28;20467;-54
2022/11/26 01:56:18;;;;;;;0.30;0.20;;;;;;;2.92;100.00;101427.38;5040395;28;20439;-55
2022/11/26 01:58:53;;;;;;;0.20;0.10;;;;;;;2.95;100.00;101423.94;5026996;28;20454;-53
2022/11/26 02:01:19;;;;;;;0.60;0.60;;;;;;;2.90;100.00;101429.09;5037842;28;20523;-55
2022/11/26 02:04:08;;;;;;;0.27;0.20;;;;;;;2.84;100.00;101434.19;5044153;28;20456;-54
2022/11/26 02:06:35;;;;;;;0.33;0.33;;;;;;;2.83;100.00;101435.06;5046061;28;20452;-54
2022/11/26 02:09:06;;;;;;;1.43;0.40;;;;;;;2.84;100.00;101434.19;5043834;28;20451;-55
2022/11/26 02:11:32;;;;;;;9.40;0.43;;;;;;;2.87;100.00;101436.00;5038782;28;20462;-54
2022/11/26 02:14:03;;;;;;;0.30;0.20;;;;;;;2.82;100.00;101438.53;5033538;28;20452;-55
2022/11/26 02:17:00;;;;;;;0.30;0.30;;;;;;;2.82;100.00;101438.53;5045794;28;20455;-55
2022/11/26 02:19:48;;;;;;;0.40;0.33;;;;;;;2.92;100.00;101445.75;5045691;28;20455;-54
2022/11/26 02:22:36;;;;;;;0.30;0.20;;;;;;;2.94;100.00;101453.66;5041341;28;20472;-54
2022/11/26 02:25:19;;;;;;;1.57;0.93;;;;;;;2.90;100.00;101457.97;5031840;28;20914;-54
2022/11/26 02:27:57;;;;;;;0.40;0.40;;;;;;;2.91;100.00;101454.50;5038413;28;20443;-55
2022/11/26 02:30:24;;;;;;;0.60;0.43;;;;;;;2.98;100.00;101456.38;5038978;28;20463;-55
2022/11/26 02:33:01;;;;;;;0.77;0.70;;;;;;;2.97;100.00;101459.84;5029411;28;20521;-54
2022/11/26 02:35:44;;;;;;;0.47;0.43;;;;;;;2.90;100.00;101465.84;5038676;28;20455;-54
2022/11/26 02:38:18;;;;;;;1.47;1.37;;;;;;;2.89;100.00;101468.44;5040919;28;20497;-54
2022/11/26 02:40:44;;;;;;;0.30;0.20;;;;;;;2.97;100.00;101474.72;5044904;28;21028;-54
2022/11/26 02:43:12;;;;;;;0.30;0.30;;;;;;;2.82;100.00;101477.91;5043528;28;20486;-55
2022/11/26 02:45:41;;;;;;;0.40;0.30;;;;;;;2.78;100.00;101469.94;5038217;28;20944;-55
2022/11/26 02:48:13;;;;;;;0.40;0.40;;;;;;;2.92;100.00;101472.03;5038833;28;20452;-54
2022/11/26 02:50:54;;;;;;;11.83;0.60;;;;;;;2.64;100.00;101478.41;5025784;28;20474;-54
2022/11/26 02:53:22;;;;;;;1.90;0.40;;;;;;;2.56;100.00;101479.06;5028757;28;21130;-55
2022/11/26 02:55:57;;;;;;;1.37;0.50;;;;;;;2.57;100.00;101481.72;5021334;28;20448;-54
2022/11/26 02:58:24;;;;;;;1.43;1.33;;;;;;;2.71;100.00;101484.66;5044473;28;20505;-54
2022/11/26 03:00:53;;;;;;;1.33;0.77;;;;;;;2.73;100.00;101484.69;5040395;28;20502;-54
2022/11/26 03:03:24;;;;;;;3.07;1.53;;;;;;;2.72;100.00;101480.28;5026807;28;20475;-55
2022/11/26 03:05:54;;;;;;;11.13;0.77;;;;;;;2.73;100.00;101479.44;5043035;28;20447;-55
2022/11/26 03:08:21;;;;;;;0.73;0.73;;;;;;;2.73;100.00;101485.56;5037636;28;20454;-55
2022/11/26 03:10:48;;;;;;;2.90;2.63;;;;;;;2.70;100.00;101484.63;5042801;28;20455;-54
2022/11/26 03:13:14;;;;;;;4.10;2.40;;;;;;;2.60;100.00;101479.19;5037298;28;20992;-55
2022/11/26 03:15:41;;;;;;;0.43;0.43;;;;;;;2.59;100.00;101485.25;5038753;28;20910;-54
2022/11/26 03:18:07;;;;;;;0.53;0.40;;;;;;;2.51;100.00;101483.34;5043357;28;20458;-54
2022/11/26 03:20:34;;;;;;;0.40;0.40;;;;;;;2.59;100.00;101487.88;5038818;28;20900;-55
2022/11/26 03:23:00;;;;;;;0.30;0.30;;;;;;;2.46;100.00;101477.06;5043989;28;20534;-54
2022/11/26 03:25:27;;;;;;;1.07;1.03;;;;;;;2.26;100.00;101487.97;5030900;28;21031;-55
2022/11/26 03:27:53;;;;;;;1.23;1.23;;;;;;;2.38;100.00;101479.53;5045973;28;20983;-54
2022/11/26 03:30:20;;;;;;;0.30;0.27;;;;;;;2.35;100.00;101480.34;5037764;28;20559;-55
2022/11/26 03:32:46;;;;;;;0.30;0.30;;;;;;;2.35;100.00;101482.09;5023100;28;20479;-55
2022/11/26 03:35:13;;;;;;;0.30;0.30;;;;;;;2.54;100.00;101472.91;5043614;28;20931;-55
2022/11/26 03:37:39;;;;;;;1.33;1.03;;;;;;;2.43;100.00;101467.41;5013488;28;20962;-55
2022/11/26 03:40:07;;;;;;;1.27;1.23;;;;;;;2.43;100.00;101459.53;5039657;28;20896;-55
2022/11/26 03:42:33;;;;;;;0.30;0.20;;;;;;;2.48;100.00;101459.66;5043866;28;20475;-55
2022/11/26 03:45:00;;;;;;;0.70;0.70;;;;;;;2.56;100.00;101453.69;5030295;28;20968;-54
2022/11/26 03:47:27;;;;;;;0.63;0.63;;;;;;;2.48;100.00;101457.91;5044136;28;20460;-54
2022/11/26 03:49:53;;;;;;;0.40;0.30;;;;;;;2.37;100.00;101451.53;5043582;28;20450;-55
2022/11/26 03:52:20;;;;;;;1.40;0.73;;;;;;;2.26;100.00;101453.88;5037089;28;20540;-55
2022/11/26 03:54:46;;;;;;;0.50;0.50;;;;;;;2.33;100.00;101452.28;5036109;28;20462;-55
2022/11/26 03:57:12;;;;;;;0.40;0.33;;;;;;;2.37;100.00;101456.78;5037508;28;20830;-54
2022/11/26 03:59:39;;;;;;;0.20;0.20;;;;;;;2.44;100.00;101457.78;5036386;28;20452;-55
2022/11/26 04:02:05;;;;;;;0.47;0.43;;;;;;;2.38;100.00;101455.91;5046468;28;21060;-54
2022/11/26 04:04:32;;;;;;;0.20;0.20;;;;;;;2.45;100.00;101463.06;5035984;28;20459;-54
2022/11/26 04:06:59;;;;;;;0.30;0.27;;;;;;;2.48;100.00;101463.16;5042634;28;20812;-54
2022/11/26 04:09:26;;;;;;;2.87;1.83;;;;;;;2.43;100.00;101464.78;5043277;28;20455;-55
2022/11/26 04:11:52;;;;;;;0.30;0.30;;;;;;;2.38;100.00;101466.41;5037249;28;20470;-54
2022/11/26 04:14:18;;;;;;;0.40;0.40;;;;;;;2.30;100.00;101465.34;5035599;28;20506;-53
2022/11/26 04:16:45;;;;;;;2.30;0.43;;;;;;;2.37;100.00;101475.13;5042099;28;20451;-54
2022/11/26 04:19:12;;;;;;;0.30;0.30;;;;;;;2.39;100.00;101473.44;5043639;28;20504;-55
2022/11/26 04:21:38;;;;;;;1.07;1.07;;;;;;;2.21;100.00;101483.50;5037125;28;20582;-55
2022/11/26 04:24:05;;;;;;;0.70;0.70;;;;;;;2.18;100.00;101480.75;5034912;28;20463;-55
2022/11/26 04:26:32;;;;;;;0.30;0.20;;;;;;;2.16;100.00;101480.72;5042077;28;20521;-54
2022/11/26 04:28:58;;;;;;;0.80;0.80;;;;;;;2.19;100.00;101479.91;5042866;28;20451;-55
2022/11/26 04:31:25;;;;;;;0.40;0.30;;;;;;;2.18;100.00;101484.28;5027071;28;20503;-55
2022/11/26 04:33:51;;;;;;;0.53;0.53;;;;;;;2.14;100.00;101489.41;5037965;28;20455;-55
2022/11/26 04:36:18;;;;;;;2.47;2.00;;;;;;;2.17;100.00;101492.09;5037614;28;20505;-55
2022/11/26 04:38:44;;;;;;;1.33;1.23;;;;;;;2.07;100.00;101498.88;5036021;28;20475;-54
2022/11/26 04:41:10;;;;;;;0.80;0.80;;;;;;;2.07;100.00;101496.25;5041171;28;20553;-55
2022/11/26 04:43:37;;;;;;;1.43;0.53;;;;;;;1.97;100.00;101500.38;5042643;28;20450;-55
2022/11/26 04:46:03;;;;;;;0.20;0.10;;;;;;;2.00;100.00;101497.81;5037143;28;20459;-55
2022/11/26 04:48:30;;;;;;;0.40;0.40;;;;;;;2.02;100.00;101505.72;5036026;28;20455;-54
2022/11/26 04:50:56;;;;;;;0.50;0.50;;;;;;;1.94;100.00;101513.41;5041127;28;20521;-54
2022/11/26 04:53:23;;;;;;;1.80;0.93;;;;;;;1.95;100.00;101512.56;5042834;28;20957;-54
2022/11/26 04:55:50;;;;;;;0.40;0.40;;;;;;;1.97;100.00;101521.34;5029444;28;21286;-54
2022/11/26 04:58:18;;;;;;;0.43;0.43;;;;;;;2.01;100.00;101532.78;5042788;28;20991;-55
2022/11/26 05:00:45;;;;;;;0.30;0.30;;;;;;;2.10;100.00;101537.41;5038239;28;20497;-54
2022/11/26 05:03:16;;;;;;;0.50;0.50;;;;;;;2.11;100.00;101544.41;5040177;28;20476;-54
2022/11/26 05:05:43;;;;;;;0.30;0.20;;;;;;;1.99;100.00;101544.97;5040325;28;20504;-54
2022/11/26 05:08:09;;;;;;;0.57;0.57;;;;;;;1.89;100.00;101548.19;5028227;28;20455;-54
2022/11/26 05:10:35;;;;;;;0.30;0.20;;;;;;;1.84;100.00;101555.94;5038268;28;20501;-55
2022/11/26 05:13:02;;;;;;;0.33;0.30;;;;;;;1.66;100.00;101558.06;5042491;28;20472;-54
2022/11/26 05:15:28;;;;;;;0.33;0.33;;;;;;;1.79;100.00;101560.19;5037527;28;20451;-54
2022/11/26 05:17:55;;;;;;;0.33;0.30;;;;;;;1.84;100.00;101571.66;5048199;28;20873;-54
2022/11/26 05:20:21;;;;;;;0.30;0.20;;;;;;;1.91;100.00;101583.19;5047103;28;20809;-54
2022/11/26 05:22:49;;;;;;;0.57;0.50;;;;;;;1.84;100.00;101586.50;5035842;28;20477;-54
2022/11/26 05:25:15;;;;;;;0.40;0.40;;;;;;;1.68;100.00;101579.97;5039828;28;20975;-54
2022/11/26 05:27:41;;;;;;;0.30;0.30;;;;;;;1.69;100.00;101586.97;5042382;28;20504;-55
2022/11/26 05:30:08;;;;;;;0.47;0.47;;;;;;;1.65;100.00;101586.00;5047945;28;20835;-55
2022/11/26 05:32:35;;;;;;;0.40;0.33;;;;;;;1.56;100.00;101587.47;5035839;28;20498;-54
2022/11/26 05:35:02;;;;;;;0.40;0.30;;;;;;;1.57;100.00;101590.13;5035530;28;20489;-55
2022/11/26 05:37:28;;;;;;;0.40;0.40;;;;;;;1.62;100.00;101600.72;5048664;28;20455;-54
2022/11/26 05:39:54;;;;;;;0.40;0.40;;;;;;;1.53;100.00;101601.38;5034387;28;20448;-53
2022/11/26 05:42:21;;;;;;;0.30;0.20;;;;;;;1.64;100.00;101593.78;5046460;28;20533;-55
2022/11/26 05:44:47;;;;;;;0.30;0.20;;;;;;;1.58;100.00;101604.13;5040127;28;20462;-55
2022/11/26 05:47:14;;;;;;;0.40;0.30;;;;;;;1.45;100.00;101603.75;5050026;28;20462;-55
2022/11/26 05:49:40;;;;;;;1.17;1.17;;;;;;;1.47;100.00;101598.56;5040597;28;20584;-55
2022/11/26 05:52:06;;;;;;;0.97;0.97;;;;;;;1.55;100.00;101604.91;5046748;28;20996;-55
2022/11/26 05:54:33;;;;;;;0.77;0.50;;;;;;;1.55;100.00;101611.91;5047888;28;20447;-55
2022/11/26 05:57:00;;;;;;;0.50;0.50;;;;;;;1.58;100.00;101610.25;5005352;28;20459;-55
2022/11/26 05:59:27;;;;;;;0.40;0.40;;;;;;;1.51;100.00;101607.38;5032795;28;20463;-54
2022/11/26 06:01:53;;;;;;;2.37;0.47;;;;;;;1.52;100.00;101619.66;5050139;28;21033;-55
2022/11/26 06:04:20;;;;;;;0.70;0.70;;;;;;;1.44;100.00;101619.44;5042638;28;20462;-55
2022/11/26 06:06:46;;;;;;;7.00;0.50;;;;;;;1.43;100.00;101618.53;5041123;28;20924;-55
2022/11/26 06:09:13;;;;;;;0.73;0.73;;;;;;;1.49;100.00;101618.72;5042702;28;20505;-55
2022/11/26 06:11:39;;;;;;;0.63;0.63;;;;;;;1.34;100.00;101623.50;5048868;28;20478;-55
2022/11/26 06:14:06;;;;;;;0.20;0.10;;;;;;;1.38;100.00;101627.13;5037298;28;20949;-55
2022/11/26 06:16:32;;;;;;;0.30;0.30;;;;;;;1.31;100.00;101627.75;5046096;28;20459;-54
2022/11/26 06:18:59;;;;;;;0.30;0.30;;;;;;;1.36;100.00;101616.56;5037030;28;20981;-55
2022/11/26 06:21:25;;;;;;;0.40;0.20;;;;;;;1.39;100.00;101619.31;5023807;28;20487;-55
2022/11/26 06:23:52;;;;;;;0.30;0.20;;;;;;;1.42;100.00;101636.84;5024839;28;20468;-55
2022/11/26 06:26:24;;;;;;;0.30;0.30;;;;;;;1.47;100.00;101630.88;5042989;28;20462;-55
2022/11/26 06:28:51;;;;;;;11.33;1.63;;;;;;;1.54;100.00;101637.22;5038214;28;20455;-55
2022/11/26 06:31:17;;;;;;;1.33;1.23;;;;;;;1.42;100.00;101626.34;5043674;28;20506;-55
2022/11/26 06:33:44;;;;;;;1.47;0.90;;;;;;;1.64;100.00;101633.09;5045403;28;20447;-55
2022/11/26 06:36:10;;;;;;;0.30;0.30;;;;;;;1.27;100.00;101639.00;5031190;28;20455;-55
2022/11/26 06:38:37;;;;;;;0.40;0.30;;;;;;;1.21;100.00;101639.66;5036180;28;20460;-54
2022/11/26 06:41:07;;;;;;;1.43;1.13;;;;;;;1.32;100.00;101640.00;5044310;28;20498;-55
2022/11/26 06:43:34;;;;;;;12.03;0.63;;;;;;;1.30;100.00;101645.19;5022896;28;20473;-55
2022/11/26 06:46:06;;;;;;;0.40;0.40;;;;;;;1.33;100.00;101652.25;5042996;28;20534;-55
2022/11/26 06:48:34;;;;;;;0.30;0.20;;;;;;;1.45;100.00;101660.50;5026387;28;20464;-55
2022/11/26 06:51:13;;;;;;;1.27;1.27;;;;;;;1.42;100.00;101658.69;5049756;28;20477;-55
2022/11/26 06:53:40;;;;;;;0.20;0.10;;;;;;;1.30;100.00;101658.31;5037838;28;20952;-55
2022/11/26 06:56:10;;;;;;;0.50;0.43;;;;;;;1.24;100.00;101662.47;5039710;28;20822;-54
2022/11/26 06:58:45;;;;;;;0.30;0.30;;;;;;;1.23;100.00;101671.13;5041090;28;20456;-55
2022/11/26 07:01:15;;;;;;;0.30;0.27;;;;;;;1.20;100.00;101671.94;5034592;28;20561;-52
2022/11/26 07:03:41;;;;;;;1.23;1.23;;;;;;;1.13;100.00;101673.50;5039340;28;20490;-55
2022/11/26 07:06:26;;;;;;;1.70;0.97;;;;;;;1.22;100.00;101679.84;5035170;28;20463;-56
2022/11/26 07:08:54;;;;;;;0.50;0.50;;;;;;;1.37;100.00;101682.94;5041095;28;20450;-55
2022/11/26 07:11:22;;;;;;;1.07;0.33;;;;;;;1.30;100.00;101667.88;5044347;28;20502;-55
2022/11/26 07:13:49;;;;;;;0.20;0.20;;;;;;;1.44;100.00;101680.56;5041818;28;20455;-55
2022/11/26 07:16:15;;;;;;;1.03;1.03;;;;;;;1.48;100.00;101685.03;5037315;28;20454;-55
2022/11/26 07:18:42;;;;;;;0.70;0.70;;;;;;;1.45;100.00;101687.59;5039683;28;20513;-55
2022/11/26 07:21:11;;;;;;;0.63;0.63;;;;;;;1.45;100.00;101690.19;5031894;28;20521;-55
2022/11/26 07:23:38;;;;;;;0.70;0.70;;;;;;;1.55;100.00;101694.00;5040057;28;20451;-55
2022/11/26 07:26:07;;;;;;;0.67;0.67;;;;;;;1.54;100.00;101700.09;5044004;28;20460;-55
2022/11/26 07:28:34;;;;;;;0.87;0.87;;;;;;;1.67;100.00;101712.72;5042050;28;20451;-55
2022/11/26 07:31:20;;;;;;;0.80;0.47;;;;;;;1.69;100.00;101710.16;5034476;28;20943;-55
2022/11/26 07:33:47;;;;;;;2.70;1.40;;;;;;;1.64;100.00;101716.97;5040020;28;20853;-56
2022/11/26 07:36:19;;;;;;;2.73;1.37;;;;;;;1.68;100.00;101714.50;5042642;28;20466;-55
2022/11/26 07:38:46;;;;;;;2.23;2.20;;;;;;;1.87;100.00;101709.78;5042911;28;20462;-56
2022/11/26 07:41:15;;;;;;;2.40;1.93;;;;;;;1.85;100.00;101696.66;5024990;28;20456;-56
2022/11/26 07:43:42;;;;;;;2.77;1.40;;;;;;;1.99;100.00;101705.81;5033876;28;20444;-55
2022/11/26 07:46:13;;;;;;;4.10;1.63;;;;;;;1.83;100.00;101707.94;5040851;28;20459;-55
2022/11/26 07:48:40;;;;;;;0.70;0.60;;;;;;;1.87;100.00;101715.03;5036008;28;20513;-55
2022/11/26 07:51:14;;;;;;;3.10;1.30;;;;;;;1.97;100.00;101715.38;5040764;28;20455;-55
2022/11/26 07:53:40;;;;;;;1.70;1.70;;;;;;;1.96;100.00;101721.44;5036316;28;20848;-55
2022/11/26 07:56:07;;;;;;;0.87;0.87;;;;;;;2.13;100.00;101721.06;5038617;28;20451;-55
2022/11/26 07:58:34;;;;;;;0.90;0.90;;;;;;;2.20;100.00;101726.53;5034698;28;20451;-56
2022/11/26 08:01:30;;;;;;;1.27;1.17;;;;;;;2.27;100.00;101725.84;5031659;28;20455;-56
2022/11/26 08:03:59;;;;;;;3.23;1.37;;;;;;;2.43;100.00;101735.03;5038031;28;20528;-55
2022/11/26 08:06:28;;;;;;;2.20;2.10;;;;;;;2.35;100.00;101741.81;5036301;28;20944;-56
2022/11/26 08:08:56;;;;;;;32.40;3.20;;;;;;;2.35;100.00;101750.56;5039437;28;20459;-56
2022/11/26 08:11:26;;;;;;;16.53;2.87;;;;;;;2.58;100.00;101750.28;5012567;28;20452;-56
2022/11/26 08:13:55;;;;;;;0.53;0.53;;;;;;;2.74;100.00;101744.66;5036012;28;20937;-56
2022/11/26 08:16:22;;;;;;;0.60;0.60;;;;;;;2.82;100.00;101750.09;5033291;28;20463;-56
2022/11/26 08:18:56;;;;;;;7.33;0.73;;;;;;;3.08;100.00;101749.03;5030825;28;20965;-57
2022/11/26 08:21:22;;;;;;;3.40;1.83;;;;;;;3.11;100.00;101756.09;5042657;28;20482;-57
2022/11/26 08:23:50;;;;;;;4.53;0.57;;;;;;;3.18;100.00;101758.91;5017658;28;20457;-57
2022/11/26 08:26:17;;;;;;;0.53;0.53;;;;;;;3.24;100.00;101753.81;5041994;28;20456;-57
2022/11/26 08:29:01;;;;;;;0.67;0.67;;;;;;;3.60;100.00;101755.56;5043136;28;20447;-56
2022/11/26 08:31:28;;;;;;;3.20;0.43;;;;;;;3.76;100.00;101754.16;5026715;28;20565;-56
2022/11/26 08:33:56;;;;;;;0.30;0.20;;;;;;;3.75;100.00;101750.63;5041161;28;20447;-57
2022/11/26 08:36:23;;;;;;;0.83;0.83;;;;;;;3.76;100.00;101757.69;5040360;28;20451;-56
2022/11/26 08:38:49;;;;;;;0.30;0.20;;;;;;;3.83;100.00;101756.94;5042746;28;20530;-56
2022/11/26 08:41:16;;;;;;;0.80;0.80;;;;;;;3.79;100.00;101770.88;5020895;28;20454;-56
2022/11/26 08:43:42;;;;;;;1.27;1.00;;;;;;;3.84;100.00;101771.00;5044986;28;20956;-56
2022/11/26 08:46:29;;;;;;;1.03;0.70;;;;;;;3.90;100.00;101781.66;5021117;28;20456;-56
2022/11/26 08:48:57;;;;;;;0.87;0.73;;;;;;;4.00;100.00;101781.03;5034839;28;20459;-56
2022/11/26 08:51:24;;;;;;;0.50;0.40;;;;;;;3.98;100.00;101780.09;5036561;28;20452;-56
2022/11/26 08:53:51;;;;;;;3.00;0.60;;;;;;;3.98;100.00;101787.09;5036999;28;20460;-56
2022/11/26 08:56:17;;;;;;;0.30;0.30;;;;;;;3.97;100.00;101785.28;5023046;28;20471;-56
2022/11/26 08:58:44;;;;;;;1.33;1.23;;;;;;;4.07;100.00;101792.53;5042841;28;20452;-56
2022/11/26 09:01:16;;;;;;;2.50;0.83;;;;;;;4.20;100.00;101786.69;5039220;28;20838;-56
2022/11/26 09:03:46;;;;;;;1.00;1.00;;;;;;;4.38;100.00;101792.34;5029367;28;20853;-56
2022/11/26 09:06:12;;;;;;;0.93;0.93;;;;;;;4.35;100.00;101784.38;5042513;28;20944;-56
2022/11/26 09:11:24;;;;;;;1.43;1.33;;;;;;;4.37;100.00;101776.53;5035820;28;20797;-56
2022/11/26 09:13:52;;;;;;;0.40;0.33;;;;;;;4.58;100.00;101776.97;5037918;28;20452;-56
2022/11/26 09:16:21;;;;;;;1.07;0.40;;;;;;;4.62;100.00;101784.06;5033152;28;20971;-56
2022/11/26 09:18:47;;;;;;;1.90;0.40;;;;;;;4.79;100.00;101784.38;5037283;28;20459;-56
2022/11/26 09:21:14;;;;;;;0.87;0.87;;;;;;;4.96;100.00;101792.63;5042400;28;20448;-56
2022/11/26 09:23:40;;;;;;;3.60;1.60;;;;;;;4.85;100.00;101799.44;5040920;28;20494;-57
2022/11/26 09:26:07;;;;;;;0.77;0.77;;;;;;;4.84;100.00;101795.03;5043587;28;20456;-57
2022/11/26 09:28:33;;;;;;;0.50;0.50;;;;;;;5.06;100.00;101795.44;5040528;28;20454;-57
2022/11/26 09:31:00;;;;;;;18.77;13.30;;;;;;;4.99;100.00;101785.66;5034013;28;20451;-57
2022/11/26 09:33:28;;;;;;;1.60;1.50;;;;;;;4.99;100.00;101785.66;5041128;28;20474;-57
2022/11/26 09:36:05;;;;;;;3.50;2.50;;;;;;;5.03;100.00;101791.88;5035811;28;20469;-57
2022/11/26 09:38:32;;;;;;;0.60;0.60;;;;;;;5.05;100.00;101791.03;5035183;28;20523;-57
2022/11/26 09:41:06;;;;;;;0.70;0.70;;;;;;;5.08;100.00;101787.59;5023814;28;20509;-57
2022/11/26 09:44:15;;;;;;;2.77;0.90;;;;;;;5.08;100.00;101779.69;5024417;28;21069;-57
2022/11/26 09:46:49;;;;;;;1.70;0.60;;;;;;;5.41;100.00;101781.09;4963092;28;20791;-57
2022/11/26 09:49:57;;;;;;;25.60;18.80;;;;;;;5.52;100.00;101790.09;5037355;28;20451;-57
2022/11/26 09:52:32;;;;;;;2.10;2.00;;;;;;;5.62;100.00;101792.00;5025035;28;20496;-57
2022/11/26 09:55:19;;;;;;;1.13;1.13;;;;;;;5.68;100.00;101792.09;5032981;28;20454;-57
2022/11/26 09:57:56;;;;;;;7.30;6.67;;;;;;;5.91;100.00;101787.22;5040629;28;20473;-57
2022/11/26 10:00:40;;;;;;;1.40;1.30;;;;;;;5.70;100.00;101789.47;5048735;28;20446;-57
2022/11/26 10:03:16;;;;;;;0.60;0.57;;;;;;;5.61;100.00;101787.56;5044217;28;20556;-57
2022/11/26 10:05:58;;;;;;;1.10;1.00;;;;;;;5.59;100.00;101800.75;5043141;28;20503;-57
2022/11/26 10:08:49;;;;;;;1.27;0.80;;;;;;;5.71;100.00;101794.78;5046059;28;20510;-57
2022/11/26 10:11:36;;;;;;;1.67;1.30;;;;;;;5.79;100.00;101792.28;5045968;28;20451;-57
2022/11/26 10:14:22;;;;;;;3.97;2.47;;;;;;;5.75;100.00;101795.69;5032828;28;20458;-57
2022/11/26 10:17:08;;;;;;;1.00;0.57;;;;;;;5.89;100.00;101787.16;5041590;28;20442;-57
2022/11/26 10:19:54;;;;;;;1.00;1.00;;;;;;;6.03;100.00;101775.91;5052651;28;20500;-57
2022/11/26 10:22:34;;;;;;;2.00;1.43;;;;;;;6.06;100.00;101778.63;5037988;28;20872;-57
2022/11/26 10:25:03;;;;;;;1.43;1.33;;;;;;;6.23;100.00;101775.34;5041698;28;20936;-57
2022/11/26 10:27:33;;;;;;;1.73;1.63;;;;;;;6.44;100.00;101785.31;5038798;28;20504;-57
2022/11/26 10:30:14;;;;;;;1.07;1.07;;;;;;;6.76;100.00;101783.03;5052515;28;20997;-57
2022/11/26 10:32:44;;;;;;;0.77;0.77;;;;;;;6.83;100.00;101782.19;5023083;28;20483;-57
2022/11/26 10:35:29;;;;;;;2.70;2.10;;;;;;;6.90;100.00;101780.53;5045231;28;20450;-57
2022/11/26 10:37:56;;;;;;;4.70;1.00;;;;;;;7.00;100.00;101778.88;5030679;28;20470;-57
2022/11/26 10:40:30;;;;;;;4.07;2.30;;;;;;;7.18;100.00;101783.44;5039043;28;20451;-57
2022/11/26 10:43:00;;;;;;;2.40;2.20;;;;;;;7.25;100.00;101780.84;5041910;28;20502;-57
2022/11/26 10:45:44;;;;;;;1.23;1.13;;;;;;;7.41;100.00;101772.22;5045231;28;20811;-57
2022/11/26 10:48:20;;;;;;;1.53;0.90;;;;;;;7.48;100.00;101770.47;5031916;28;20922;-57
2022/11/26 10:51:02;;;;;;;1.83;1.13;;;;;;;7.71;100.00;101773.31;5027946;28;20450;-57
2022/11/26 10:53:51;;;;;;;0.40;0.30;;;;;;;7.71;100.00;101768.91;5030473;28;20467;-57
2022/11/26 10:56:41;;;;;;;15.30;0.93;;;;;;;7.73;100.00;101767.16;5030414;28;20462;-57
2022/11/26 10:59:33;;;;;;;0.60;0.40;;;;;;;7.58;100.00;101764.38;5031438;28;20508;-57
2022/11/26 11:02:02;;;;;;;1.60;1.50;;;;;;;7.57;100.00;101767.03;5038236;28;20481;-57
2022/11/26 11:04:39;;;;;;;1.93;1.27;;;;;;;7.64;100.00;101761.78;5038065;28;20543;-57
2022/11/26 11:07:38;;;;;;;0.60;0.57;;;;;;;7.73;100.00;101755.66;5052109;28;20446;-57
2022/11/26 11:10:18;;;;;;;1.23;1.00;;;;;;;7.83;100.00;101753.97;5032280;28;20482;-57
2022/11/26 11:12:49;;;;;;;2.80;1.07;;;;;;;7.81;100.00;101750.41;5031655;28;20995;-57
2022/11/26 11:15:25;;;;;;;2.10;0.93;;;;;;;8.02;100.00;101758.50;5040066;28;20439;-58
2022/11/26 11:18:14;;;;;;;0.70;0.70;;;;;;;7.79;100.00;101762.75;5034741;28;20451;-57
2022/11/26 11:20:42;;;;;;;5.00;0.90;;;;;;;7.75;100.00;101759.22;5027707;28;20435;-57
2022/11/26 11:23:09;;;;;;;3.67;0.87;;;;;;;8.04;100.00;101762.03;5043911;28;21040;-57
2022/11/26 11:25:42;;;;;;;3.20;2.60;;;;;;;7.89;100.00;101754.00;5044815;28;21007;-57
2022/11/26 11:28:21;;;;;;;0.60;0.60;;;;;;;8.13;100.00;101754.16;5039347;28;20961;-57
2022/11/26 11:30:57;;;;;;;0.70;0.70;;;;;;;8.06;100.00;101749.69;5037804;28;20501;-57
2022/11/26 11:33:27;;;;;;;0.87;0.87;;;;;;;7.77;100.00;101752.16;5031167;28;21237;-57
2022/11/26 11:36:05;;;;;;;20.07;1.20;;;;;;;7.80;100.00;101746.88;5044601;28;20452;-57
2022/11/26 11:38:45;;;;;;;0.80;0.70;;;;;;;7.68;100.00;101745.06;5031195;28;20456;-58
2022/11/26 11:41:29;;;;;;;1.70;1.57;;;;;;;7.97;100.00;101742.59;5020129;28;20995;-57
2022/11/26 11:44:23;;;;;;;1.80;1.70;;;;;;;8.09;100.00;101747.06;5039242;28;20500;-58